sensor_id;sensor_type;location;lat;lon;timestamp;temperature;humidity
69054;DHT22;56125;52.242;4.756;2024-01-15T00:03:49;16.80;44.30
69054;DHT22;56125;52.242;4.756;2024-01-15T00:08:50;16.80;44.40
69054;DHT22;56125;52.242;4.756;2024-01-15T00:13:52;16.80;44.50
69054;DHT22;56125;52.242;4.756;2024-01-15T00:18:53;16.80;44.20
69054;DHT22;56125;52.242;4.756;2024-01-15T00:23:54;16.80;44.30
69054;DHT22;56125;52.242;4.756;2024-01-15T00:28:55;16.80;44.30
69054;DHT22;56125;52.242;4.756;2024-01-15T00:33:56;16.80;44.10
69054;DHT22;56125;52.242;4.756;2024-01-15T00:38:58;16.80;44.50
69054;DHT22;56125;52.242;4.756;2024-01-15T00:43:59;16.80;44.30
69054;DHT22;56125;52.242;4.756;2024-01-15T00:49:00;16.80;44.10
69054;DHT22;56125;52.242;4.756;2024-01-15T00:54:01;16.80;44.10
69054;DHT22;56125;52.242;4.756;2024-01-15T00:59:03;16.80;44.10
69054;DHT22;56125;52.242;4.756;2024-01-15T01:04:04;17.50;44.70
69054;DHT22;56125;52.242;4.756;2024-01-15T01:09:05;16.80;44.30
69054;DHT22;56125;52.242;4.756;2024-01-15T01:14:06;16.80;44.30
69054;DHT22;56125;52.242;4.756;2024-01-15T01:19:07;16.80;45.30
69054;DHT22;56125;52.242;4.756;2024-01-15T01:24:08;16.80;44.00
69054;DHT22;56125;52.242;4.756;2024-01-15T01:29:09;16.80;44.10
69054;DHT22;56125;52.242;4.756;2024-01-15T01:34:13;16.80;44.20
69054;DHT22;56125;52.242;4.756;2024-01-15T01:39:14;16.80;44.10
69054;DHT22;56125;52.242;4.756;2024-01-15T01:44:15;16.80;44.30
69054;DHT22;56125;52.242;4.756;2024-01-15T01:49:17;16.80;44.20
69054;DHT22;56125;52.242;4.756;2024-01-15T01:54:19;16.80;44.00
69054;DHT22;56125;52.242;4.756;2024-01-15T01:59:21;16.80;44.10
69054;DHT22;56125;52.242;4.756;2024-01-15T02:04:24;16.80;44.00
69054;DHT22;56125;52.242;4.756;2024-01-15T02:09:25;16.80;44.20
69054;DHT22;56125;52.242;4.756;2024-01-15T02:14:27;16.70;44.10
69054;DHT22;56125;52.242;4.756;2024-01-15T02:19:28;16.80;44.40
69054;DHT22;56125;52.242;4.756;2024-01-15T02:24:29;16.80;44.20
69054;DHT22;56125;52.242;4.756;2024-01-15T02:29:30;16.80;44.40
69054;DHT22;56125;52.242;4.756;2024-01-15T02:34:32;16.80;44.50
69054;DHT22;56125;52.242;4.756;2024-01-15T02:39:33;16.80;44.30
69054;DHT22;56125;52.242;4.756;2024-01-15T02:44:34;16.80;44.20
69054;DHT22;56125;52.242;4.756;2024-01-15T02:49:35;16.80;44.50
69054;DHT22;56125;52.242;4.756;2024-01-15T02:54:36;16.80;44.30
69054;DHT22;56125;52.242;4.756;2024-01-15T02:59:37;16.80;44.40
69054;DHT22;56125;52.242;4.756;2024-01-15T03:04:43;16.80;44.30
69054;DHT22;56125;52.242;4.756;2024-01-15T03:09:44;16.70;44.40
69054;DHT22;56125;52.242;4.756;2024-01-15T03:14:45;16.50;44.30
69054;DHT22;56125;52.242;4.756;2024-01-15T03:19:47;17.00;44.50
69054;DHT22;56125;52.242;4.756;2024-01-15T03:24:48;16.80;44.50
69054;DHT22;56125;52.242;4.756;2024-01-15T03:29:49;16.80;44.40
69054;DHT22;56125;52.242;4.756;2024-01-15T03:34:50;16.80;44.50
69054;DHT22;56125;52.242;4.756;2024-01-15T03:39:53;16.70;44.30
69054;DHT22;56125;52.242;4.756;2024-01-15T03:44:54;16.70;44.30
69054;DHT22;56125;52.242;4.756;2024-01-15T03:49:55;16.80;44.60
69054;DHT22;56125;52.242;4.756;2024-01-15T03:54:56;16.70;44.30
69054;DHT22;56125;52.242;4.756;2024-01-15T03:59:57;15.70;43.70
69054;DHT22;56125;52.242;4.756;2024-01-15T04:04:58;16.80;44.30
69054;DHT22;56125;52.242;4.756;2024-01-15T04:09:59;16.80;44.50
69054;DHT22;56125;52.242;4.756;2024-01-15T04:15:00;16.70;44.30
69054;DHT22;56125;52.242;4.756;2024-01-15T04:20:01;16.70;44.20
69054;DHT22;56125;52.242;4.756;2024-01-15T04:25:03;16.80;44.40
69054;DHT22;56125;52.242;4.756;2024-01-15T04:30:04;16.80;44.40
69054;DHT22;56125;52.242;4.756;2024-01-15T04:35:06;16.80;44.50
69054;DHT22;56125;52.242;4.756;2024-01-15T04:40:08;16.80;44.40
69054;DHT22;56125;52.242;4.756;2024-01-15T04:45:09;16.70;44.40
69054;DHT22;56125;52.242;4.756;2024-01-15T04:50:10;15.60;43.80
69054;DHT22;56125;52.242;4.756;2024-01-15T04:55:11;16.70;44.50
69054;DHT22;56125;52.242;4.756;2024-01-15T05:00:12;16.80;44.50
69054;DHT22;56125;52.242;4.756;2024-01-15T05:05:14;16.80;44.50
69054;DHT22;56125;52.242;4.756;2024-01-15T05:10:15;16.70;44.50
69054;DHT22;56125;52.242;4.756;2024-01-15T05:15:16;16.80;44.30
69054;DHT22;56125;52.242;4.756;2024-01-15T05:20:17;16.80;44.40
69054;DHT22;56125;52.242;4.756;2024-01-15T05:25:19;16.70;44.30
69054;DHT22;56125;52.242;4.756;2024-01-15T05:30:20;16.70;44.40
69054;DHT22;56125;52.242;4.756;2024-01-15T05:35:21;16.70;44.40
69054;DHT22;56125;52.242;4.756;2024-01-15T05:40:22;16.70;44.30
69054;DHT22;56125;52.242;4.756;2024-01-15T05:45:23;16.70;44.30
69054;DHT22;56125;52.242;4.756;2024-01-15T05:50:24;16.70;44.50
69054;DHT22;56125;52.242;4.756;2024-01-15T05:55:25;16.80;44.50
69054;DHT22;56125;52.242;4.756;2024-01-15T06:00:26;16.70;44.60
69054;DHT22;56125;52.242;4.756;2024-01-15T06:05:27;17.10;44.90
69054;DHT22;56125;52.242;4.756;2024-01-15T06:10:28;16.70;44.80
69054;DHT22;56125;52.242;4.756;2024-01-15T06:15:29;16.70;44.70
69054;DHT22;56125;52.242;4.756;2024-01-15T06:20:30;16.70;44.80
69054;DHT22;56125;52.242;4.756;2024-01-15T06:25:31;16.70;44.20
69054;DHT22;56125;52.242;4.756;2024-01-15T06:30:32;16.70;44.10
69054;DHT22;56125;52.242;4.756;2024-01-15T06:35:33;16.70;43.80
69054;DHT22;56125;52.242;4.756;2024-01-15T06:40:35;16.60;43.90
69054;DHT22;56125;52.242;4.756;2024-01-15T06:45:36;16.60;43.90
69054;DHT22;56125;52.242;4.756;2024-01-15T06:50:38;16.60;43.70
69054;DHT22;56125;52.242;4.756;2024-01-15T06:55:39;16.60;43.70
69054;DHT22;56125;52.242;4.756;2024-01-15T07:00:40;16.60;43.90
69054;DHT22;56125;52.242;4.756;2024-01-15T07:05:41;16.60;43.90
69054;DHT22;56125;52.242;4.756;2024-01-15T07:10:42;16.60;43.70
69054;DHT22;56125;52.242;4.756;2024-01-15T07:15:43;16.60;43.70
69054;DHT22;56125;52.242;4.756;2024-01-15T07:20:45;16.60;43.90
69054;DHT22;56125;52.242;4.756;2024-01-15T07:25:46;16.60;43.70
69054;DHT22;56125;52.242;4.756;2024-01-15T07:30:47;16.60;43.80
69054;DHT22;56125;52.242;4.756;2024-01-15T07:35:48;16.60;43.70
69054;DHT22;56125;52.242;4.756;2024-01-15T07:40:49;16.60;44.10
69054;DHT22;56125;52.242;4.756;2024-01-15T07:45:50;16.60;44.60
69054;DHT22;56125;52.242;4.756;2024-01-15T07:50:51;16.70;45.60
69054;DHT22;56125;52.242;4.756;2024-01-15T07:55:53;16.70;45.10
69054;DHT22;56125;52.242;4.756;2024-01-15T08:00:54;16.70;45.40
69054;DHT22;56125;52.242;4.756;2024-01-15T08:05:55;16.70;45.60
69054;DHT22;56125;52.242;4.756;2024-01-15T08:10:58;16.80;45.30
69054;DHT22;56125;52.242;4.756;2024-01-15T08:15:59;16.80;45.60
69054;DHT22;56125;52.242;4.756;2024-01-15T08:21:00;16.80;45.40
69054;DHT22;56125;52.242;4.756;2024-01-15T08:26:01;17.30;44.30
69054;DHT22;56125;52.242;4.756;2024-01-15T08:31:02;18.00;42.20
69054;DHT22;56125;52.242;4.756;2024-01-15T08:36:04;18.80;40.80
69054;DHT22;56125;52.242;4.756;2024-01-15T08:41:05;19.40;40.30
69054;DHT22;56125;52.242;4.756;2024-01-15T08:46:06;19.80;40.20
69054;DHT22;56125;52.242;4.756;2024-01-15T08:51:07;20.10;39.70
69054;DHT22;56125;52.242;4.756;2024-01-15T08:56:08;20.00;39.80
69054;DHT22;56125;52.242;4.756;2024-01-15T09:01:09;20.00;39.90
69054;DHT22;56125;52.242;4.756;2024-01-15T09:06:11;19.80;39.60
69054;DHT22;56125;52.242;4.756;2024-01-15T09:11:12;19.60;40.60
69054;DHT22;56125;52.242;4.756;2024-01-15T09:16:13;19.50;39.50
69054;DHT22;56125;52.242;4.756;2024-01-15T09:21:14;19.60;40.60
69054;DHT22;56125;52.242;4.756;2024-01-15T09:26:15;19.40;41.30
69054;DHT22;56125;52.242;4.756;2024-01-15T09:31:16;19.50;41.40
69054;DHT22;56125;52.242;4.756;2024-01-15T09:36:18;19.60;40.70
69054;DHT22;56125;52.242;4.756;2024-01-15T09:41:19;19.50;40.70
69054;DHT22;56125;52.242;4.756;2024-01-15T09:46:27;19.50;40.70
69054;DHT22;56125;52.242;4.756;2024-01-15T09:51:31;19.60;40.50
69054;DHT22;56125;52.242;4.756;2024-01-15T09:56:33;19.60;41.20
69054;DHT22;56125;52.242;4.756;2024-01-15T10:01:36;19.50;41.30
69054;DHT22;56125;52.242;4.756;2024-01-15T10:06:38;19.60;41.60
69054;DHT22;56125;52.242;4.756;2024-01-15T10:11:43;19.60;41.60
69054;DHT22;56125;52.242;4.756;2024-01-15T10:16:45;19.60;41.60
69054;DHT22;56125;52.242;4.756;2024-01-15T10:21:46;19.60;40.70
69054;DHT22;56125;52.242;4.756;2024-01-15T10:26:47;19.60;41.90
69054;DHT22;56125;52.242;4.756;2024-01-15T10:31:48;19.60;41.40
69054;DHT22;56125;52.242;4.756;2024-01-15T10:36:49;19.60;41.20
69054;DHT22;56125;52.242;4.756;2024-01-15T10:41:56;19.60;41.50
69054;DHT22;56125;52.242;4.756;2024-01-15T10:46:57;19.60;41.90
69054;DHT22;56125;52.242;4.756;2024-01-15T10:51:58;19.50;41.80
69054;DHT22;56125;52.242;4.756;2024-01-15T10:56:59;19.60;40.80
69054;DHT22;56125;52.242;4.756;2024-01-15T11:02:01;19.70;39.80
69054;DHT22;56125;52.242;4.756;2024-01-15T11:07:02;19.70;41.70
69054;DHT22;56125;52.242;4.756;2024-01-15T11:12:11;19.70;41.60
69054;DHT22;56125;52.242;4.756;2024-01-15T11:17:13;19.60;40.10
69054;DHT22;56125;52.242;4.756;2024-01-15T11:22:53;19.80;41.50
69054;DHT22;56125;52.242;4.756;2024-01-15T11:27:54;19.80;41.50
69054;DHT22;56125;52.242;4.756;2024-01-15T11:32:56;19.70;41.50
69054;DHT22;56125;52.242;4.756;2024-01-15T11:37:57;19.60;41.90
69054;DHT22;56125;52.242;4.756;2024-01-15T11:42:58;19.50;41.50
69054;DHT22;56125;52.242;4.756;2024-01-15T11:53:45;19.60;40.50
69054;DHT22;56125;52.242;4.756;2024-01-15T11:58:48;19.70;41.70
69054;DHT22;56125;52.242;4.756;2024-01-15T12:03:51;19.60;41.50
69054;DHT22;56125;52.242;4.756;2024-01-15T12:09:06;19.60;41.20
69054;DHT22;56125;52.242;4.756;2024-01-15T12:14:07;19.60;40.40
69054;DHT22;56125;52.242;4.756;2024-01-15T12:19:09;19.70;41.40
69054;DHT22;56125;52.242;4.756;2024-01-15T12:24:10;19.70;41.80
69054;DHT22;56125;52.242;4.756;2024-01-15T12:29:11;19.70;41.40
69054;DHT22;56125;52.242;4.756;2024-01-15T12:34:12;19.70;40.90
69054;DHT22;56125;52.242;4.756;2024-01-15T12:39:13;19.60;39.10
69054;DHT22;56125;52.242;4.756;2024-01-15T12:44:14;19.50;39.20
69054;DHT22;56125;52.242;4.756;2024-01-15T12:49:15;19.60;39.40
69054;DHT22;56125;52.242;4.756;2024-01-15T12:54:16;19.80;40.20
69054;DHT22;56125;52.242;4.756;2024-01-15T12:59:18;19.90;39.00
69054;DHT22;56125;52.242;4.756;2024-01-15T13:04:23;19.90;40.30
69054;DHT22;56125;52.242;4.756;2024-01-15T13:09:24;19.90;40.90
69054;DHT22;56125;52.242;4.756;2024-01-15T13:14:25;19.90;41.30
69054;DHT22;56125;52.242;4.756;2024-01-15T13:19:26;19.80;38.70
69054;DHT22;56125;52.242;4.756;2024-01-15T13:24:28;19.70;40.70
69054;DHT22;56125;52.242;4.756;2024-01-15T13:29:29;19.70;41.00
69054;DHT22;56125;52.242;4.756;2024-01-15T13:34:30;19.80;41.30
69054;DHT22;56125;52.242;4.756;2024-01-15T13:39:31;19.80;39.80
69054;DHT22;56125;52.242;4.756;2024-01-15T13:44:34;19.80;38.40
69054;DHT22;56125;52.242;4.756;2024-01-15T13:49:35;19.80;40.80
69054;DHT22;56125;52.242;4.756;2024-01-15T13:54:37;19.80;39.90
69054;DHT22;56125;52.242;4.756;2024-01-15T13:59:39;19.80;40.10
69054;DHT22;56125;52.242;4.756;2024-01-15T14:04:40;19.70;38.90
69054;DHT22;56125;52.242;4.756;2024-01-15T14:09:42;19.80;40.50
69054;DHT22;56125;52.242;4.756;2024-01-15T14:14:43;19.80;38.40
69054;DHT22;56125;52.242;4.756;2024-01-15T14:19:44;19.90;39.60
69054;DHT22;56125;52.242;4.756;2024-01-15T14:24:49;19.90;39.00
69054;DHT22;56125;52.242;4.756;2024-01-15T14:29:51;19.80;38.60
69054;DHT22;56125;52.242;4.756;2024-01-15T14:34:52;19.90;37.40
69054;DHT22;56125;52.242;4.756;2024-01-15T14:39:53;20.00;39.20
69054;DHT22;56125;52.242;4.756;2024-01-15T14:44:54;20.00;39.70
69054;DHT22;56125;52.242;4.756;2024-01-15T14:49:55;19.90;39.80
69054;DHT22;56125;52.242;4.756;2024-01-15T14:54:58;19.90;39.30
69054;DHT22;56125;52.242;4.756;2024-01-15T14:59:59;19.90;37.10
69054;DHT22;56125;52.242;4.756;2024-01-15T15:05:01;19.80;39.40
69054;DHT22;56125;52.242;4.756;2024-01-15T15:10:05;19.90;39.80
69054;DHT22;56125;52.242;4.756;2024-01-15T15:15:07;19.90;39.60
69054;DHT22;56125;52.242;4.756;2024-01-15T15:20:11;19.90;39.80
69054;DHT22;56125;52.242;4.756;2024-01-15T15:25:12;19.90;38.40
69054;DHT22;56125;52.242;4.756;2024-01-15T15:30:14;19.90;39.80
69054;DHT22;56125;52.242;4.756;2024-01-15T15:35:15;19.90;39.20
69054;DHT22;56125;52.242;4.756;2024-01-15T15:40:16;19.90;39.80
69054;DHT22;56125;52.242;4.756;2024-01-15T15:45:18;20.00;39.80
69054;DHT22;56125;52.242;4.756;2024-01-15T15:50:19;19.90;39.80
69054;DHT22;56125;52.242;4.756;2024-01-15T15:55:20;19.90;39.70
69054;DHT22;56125;52.242;4.756;2024-01-15T16:00:21;19.90;39.70
69054;DHT22;56125;52.242;4.756;2024-01-15T16:05:22;19.90;38.50
69054;DHT22;56125;52.242;4.756;2024-01-15T16:10:23;19.80;39.80
69054;DHT22;56125;52.242;4.756;2024-01-15T16:15:24;19.80;39.70
69054;DHT22;56125;52.242;4.756;2024-01-15T16:20:25;19.90;39.00
69054;DHT22;56125;52.242;4.756;2024-01-15T16:25:26;19.90;40.20
69054;DHT22;56125;52.242;4.756;2024-01-15T16:30:27;19.80;39.90
69054;DHT22;56125;52.242;4.756;2024-01-15T16:35:29;19.90;39.70
69054;DHT22;56125;52.242;4.756;2024-01-15T16:40:30;19.90;39.40
69054;DHT22;56125;52.242;4.756;2024-01-15T16:45:31;20.00;38.30
69054;DHT22;56125;52.242;4.756;2024-01-15T16:50:33;20.10;38.60
69054;DHT22;56125;52.242;4.756;2024-01-15T16:55:34;20.10;38.50
69054;DHT22;56125;52.242;4.756;2024-01-15T17:00:35;20.10;38.00
69054;DHT22;56125;52.242;4.756;2024-01-15T17:05:36;19.90;38.00
69054;DHT22;56125;52.242;4.756;2024-01-15T17:10:37;19.80;38.80
69054;DHT22;56125;52.242;4.756;2024-01-15T17:15:38;19.90;39.40
69054;DHT22;56125;52.242;4.756;2024-01-15T17:20:39;19.80;39.00
69054;DHT22;56125;52.242;4.756;2024-01-15T17:25:42;19.70;39.20
69054;DHT22;56125;52.242;4.756;2024-01-15T17:30:43;19.60;38.90
69054;DHT22;56125;52.242;4.756;2024-01-15T17:35:53;19.60;38.80
69054;DHT22;56125;52.242;4.756;2024-01-15T17:40:54;19.50;39.10
69054;DHT22;56125;52.242;4.756;2024-01-15T17:45:55;19.40;38.80
69054;DHT22;56125;52.242;4.756;2024-01-15T17:50:59;19.40;39.00
69054;DHT22;56125;52.242;4.756;2024-01-15T17:56:00;19.40;39.40
69054;DHT22;56125;52.242;4.756;2024-01-15T18:01:01;19.40;39.00
69054;DHT22;56125;52.242;4.756;2024-01-15T18:06:03;19.40;38.80
69054;DHT22;56125;52.242;4.756;2024-01-15T18:11:04;19.30;38.70
69054;DHT22;56125;52.242;4.756;2024-01-15T18:16:08;19.20;39.10
69054;DHT22;56125;52.242;4.756;2024-01-15T18:21:09;19.20;39.60
69054;DHT22;56125;52.242;4.756;2024-01-15T18:26:10;19.20;39.80
69054;DHT22;56125;52.242;4.756;2024-01-15T18:31:12;19.20;40.30
69054;DHT22;56125;52.242;4.756;2024-01-15T18:36:13;19.20;40.30
69054;DHT22;56125;52.242;4.756;2024-01-15T18:41:23;19.10;40.90
69054;DHT22;56125;52.242;4.756;2024-01-15T18:46:25;19.10;41.00
69054;DHT22;56125;52.242;4.756;2024-01-15T18:51:26;19.00;41.90
69054;DHT22;56125;52.242;4.756;2024-01-15T18:56:27;19.00;43.00
69054;DHT22;56125;52.242;4.756;2024-01-15T19:01:31;19.00;43.90
69054;DHT22;56125;52.242;4.756;2024-01-15T19:06:37;19.00;44.70
69054;DHT22;56125;52.242;4.756;2024-01-15T19:11:38;19.00;45.20
69054;DHT22;56125;52.242;4.756;2024-01-15T19:16:39;19.00;45.70
69054;DHT22;56125;52.242;4.756;2024-01-15T19:21:40;18.90;45.60
69054;DHT22;56125;52.242;4.756;2024-01-15T19:26:41;18.90;45.80
69054;DHT22;56125;52.242;4.756;2024-01-15T19:31:42;18.90;46.10
69054;DHT22;56125;52.242;4.756;2024-01-15T19:36:43;18.90;46.50
69054;DHT22;56125;52.242;4.756;2024-01-15T19:41:44;18.90;46.70
69054;DHT22;56125;52.242;4.756;2024-01-15T19:46:45;18.90;46.80
69054;DHT22;56125;52.242;4.756;2024-01-15T19:51:46;18.90;46.80
69054;DHT22;56125;52.242;4.756;2024-01-15T19:56:48;18.90;47.10
69054;DHT22;56125;52.242;4.756;2024-01-15T20:01:50;18.90;47.20
69054;DHT22;56125;52.242;4.756;2024-01-15T20:06:52;18.80;47.50
69054;DHT22;56125;52.242;4.756;2024-01-15T20:11:53;18.80;46.90
69054;DHT22;56125;52.242;4.756;2024-01-15T20:16:54;18.80;46.90
69054;DHT22;56125;52.242;4.756;2024-01-15T20:21:55;18.80;47.10
69054;DHT22;56125;52.242;4.756;2024-01-15T20:26:56;18.80;46.90
69054;DHT22;56125;52.242;4.756;2024-01-15T20:31:58;19.00;47.10
69054;DHT22;56125;52.242;4.756;2024-01-15T20:36:59;18.70;46.90
69054;DHT22;56125;52.242;4.756;2024-01-15T20:42:00;18.70;47.00
69054;DHT22;56125;52.242;4.756;2024-01-15T20:47:01;18.70;47.00
69054;DHT22;56125;52.242;4.756;2024-01-15T20:52:02;18.70;47.30
69054;DHT22;56125;52.242;4.756;2024-01-15T20:57:04;18.70;46.60
69054;DHT22;56125;52.242;4.756;2024-01-15T21:02:05;18.60;46.90
69054;DHT22;56125;52.242;4.756;2024-01-15T21:07:06;18.70;47.00
69054;DHT22;56125;52.242;4.756;2024-01-15T21:12:10;18.60;47.00
69054;DHT22;56125;52.242;4.756;2024-01-15T21:17:12;18.60;47.10
69054;DHT22;56125;52.242;4.756;2024-01-15T21:22:13;18.60;47.10
69054;DHT22;56125;52.242;4.756;2024-01-15T21:27:14;18.60;46.80
69054;DHT22;56125;52.242;4.756;2024-01-15T21:32:17;18.50;46.90
69054;DHT22;56125;52.242;4.756;2024-01-15T21:37:18;18.50;46.90
69054;DHT22;56125;52.242;4.756;2024-01-15T21:42:19;18.50;46.40
69054;DHT22;56125;52.242;4.756;2024-01-15T21:47:20;18.50;46.40
69054;DHT22;56125;52.242;4.756;2024-01-15T21:52:22;18.40;46.40
69054;DHT22;56125;52.242;4.756;2024-01-15T21:57:23;19.40;46.60
69054;DHT22;56125;52.242;4.756;2024-01-15T22:02:24;18.50;46.30
69054;DHT22;56125;52.242;4.756;2024-01-15T22:07:26;18.40;46.30
69054;DHT22;56125;52.242;4.756;2024-01-15T22:12:27;18.40;45.90
69054;DHT22;56125;52.242;4.756;2024-01-15T22:17:28;18.40;45.80
69054;DHT22;56125;52.242;4.756;2024-01-15T22:22:29;18.40;46.10
69054;DHT22;56125;52.242;4.756;2024-01-15T22:27:30;18.40;45.70
69054;DHT22;56125;52.242;4.756;2024-01-15T22:32:31;18.40;45.60
69054;DHT22;56125;52.242;4.756;2024-01-15T22:37:33;17.70;45.40
69054;DHT22;56125;52.242;4.756;2024-01-15T22:42:34;18.30;45.30
69054;DHT22;56125;52.242;4.756;2024-01-15T22:47:35;18.40;45.10
69054;DHT22;56125;52.242;4.756;2024-01-15T22:52:36;18.70;45.00
69054;DHT22;56125;52.242;4.756;2024-01-15T22:57:37;18.40;45.10
69054;DHT22;56125;52.242;4.756;2024-01-15T23:02:38;18.40;44.70
69054;DHT22;56125;52.242;4.756;2024-01-15T23:07:40;18.40;44.60
69054;DHT22;56125;52.242;4.756;2024-01-15T23:12:41;18.40;44.50
69054;DHT22;56125;52.242;4.756;2024-01-15T23:17:42;18.40;44.70
69054;DHT22;56125;52.242;4.756;2024-01-15T23:22:45;18.40;44.30
69054;DHT22;56125;52.242;4.756;2024-01-15T23:27:46;18.40;44.30
69054;DHT22;56125;52.242;4.756;2024-01-15T23:32:47;18.40;43.90
69054;DHT22;56125;52.242;4.756;2024-01-15T23:37:48;18.40;44.00
69054;DHT22;56125;52.242;4.756;2024-01-15T23:42:49;18.40;43.80
69054;DHT22;56125;52.242;4.756;2024-01-15T23:47:50;19.00;44.00
69054;DHT22;56125;52.242;4.756;2024-01-15T23:52:52;18.40;43.50
69054;DHT22;56125;52.242;4.756;2024-01-15T23:57:53;18.40;43.60
